Luling, Texas
Current Conditions -  °F | °C
As of 9:46 AM on Thursday 30 Oct 2014 (Local Time) from KHYI Reporting Station
Broken Clouds Broken Clouds  
Wind Chill: 66°   Ceiling: 1500
Heat Index: 66°   Visibility: 10mi
Dew Point: 55°   Wind: 5mph
Humidity: 68%   Direction: 130°SE
Pressure: 30.16"   Gusts: NA
Location:  29.68°N, 97.65°W
Report Text: KHYI 301446Z 13004KT 10SM BKN015 19/13 A3016
Loading
Personal Weather Stations






























Interactive Weather Map
Tropical Storm Tracking
New forecast layout! Learn more

10-Day Weather Forecast

Advertisements
Track Severe Weather on mobile